Time;durP1;ratioP1;P1;durP2;ratioP2;P2;SDS_P1;SDS_P2;PMS_P1;PMS_P2;Temp;Humidity;BMP_temperature;BMP_pressure;BME280_temperature;BME280_humidity;BME280_pressure;Samples;Min_cycle;Max_cycle;Signal;HPM_P1;HPM_P2
2022/06/30 00:01:42;;;;;;;11.95;4.63;;;17.00;77.30;;;;;;4999754;28;20398;-73
2022/06/30 00:04:08;;;;;;;11.27;4.43;;;17.00;77.50;;;;;;5000036;28;20536;-72
2022/06/30 00:06:34;;;;;;;11.57;5.10;;;17.00;77.60;;;;;;4994558;28;20355;-74
2022/06/30 00:08:59;;;;;;;14.15;5.07;;;17.10;77.50;;;;;;4997913;28;20430;-73
2022/06/30 00:11:25;;;;;;;12.05;5.22;;;17.10;77.50;;;;;;5008134;28;20038;-72
2022/06/30 00:13:52;;;;;;;11.98;5.15;;;17.00;77.40;;;;;;5000726;28;20092;-73
2022/06/30 00:16:18;;;;;;;10.43;4.78;;;16.90;77.20;;;;;;4996144;28;20506;-73
2022/06/30 00:18:45;;;;;;;11.52;4.53;;;16.90;77.30;;;;;;4998396;28;20173;-74
2022/06/30 00:21:11;;;;;;;9.65;4.63;;;16.90;77.10;;;;;;4995148;28;20321;-74
2022/06/30 00:23:37;;;;;;;11.52;4.95;;;16.90;76.80;;;;;;4996580;28;20136;-74
2022/06/30 00:26:03;;;;;;;10.25;4.57;;;16.80;76.90;;;;;;4997672;28;20030;-73
2022/06/30 00:28:29;;;;;;;9.75;4.30;;;16.80;76.80;;;;;;5011489;28;20124;-73
2022/06/30 00:30:55;;;;;;;10.07;4.03;;;16.80;76.80;;;;;;4999711;28;20196;-73
2022/06/30 00:33:21;;;;;;;9.52;3.75;;;16.70;77.20;;;;;;5000314;28;22622;-74
2022/06/30 00:35:47;;;;;;;12.95;4.05;;;16.80;76.90;;;;;;5000561;28;20026;-74
2022/06/30 00:38:13;;;;;;;8.48;3.97;;;16.80;76.80;;;;;;4993387;28;20039;-73
2022/06/30 00:40:42;;;;;;;11.10;3.88;;;16.80;76.90;;;;;;4996142;28;20092;-74
2022/06/30 00:43:07;;;;;;;10.25;4.35;;;16.80;77.00;;;;;;4995702;28;20091;-74
2022/06/30 00:45:42;;;;;;;8.65;4.43;;;16.80;77.00;;;;;;5003930;28;20896;-74
2022/06/30 00:48:09;;;;;;;14.50;5.38;;;16.70;77.30;;;;;;4990056;28;20048;-74
2022/06/30 00:50:35;;;;;;;12.65;4.72;;;16.60;77.70;;;;;;4996792;28;20041;-74
2022/06/30 00:53:04;;;;;;;11.63;4.90;;;16.50;78.10;;;;;;4999016;28;20034;-74
2022/06/30 00:55:30;;;;;;;12.05;4.50;;;16.50;78.50;;;;;;5001390;28;20100;-74
2022/06/30 00:57:59;;;;;;;11.13;4.65;;;16.50;78.80;;;;;;4999542;28;20088;-73
2022/06/30 01:00:28;;;;;;;9.82;4.75;;;16.50;79.00;;;;;;4996555;28;20485;-73
2022/06/30 01:02:55;;;;;;;9.23;4.18;;;16.60;78.70;;;;;;4997759;28;20661;-73
2022/06/30 01:05:21;;;;;;;8.05;4.55;;;16.60;78.90;;;;;;5002005;28;20417;-74
2022/06/30 01:07:48;;;;;;;12.00;4.95;;;16.50;78.80;;;;;;5002353;28;20495;-73
2022/06/30 01:12:59;;;;;;;8.30;4.20;;;16.50;79.00;;;;;;4994642;28;20052;-73
2022/06/30 01:15:25;;;;;;;8.65;3.78;;;16.60;78.90;;;;;;4993630;28;20033;-73
2022/06/30 01:17:51;;;;;;;9.90;4.10;;;16.60;79.10;;;;;;4996130;28;20111;-73
2022/06/30 01:20:23;;;;;;;10.93;3.90;;;16.60;79.00;;;;;;4994331;28;20038;-73
2022/06/30 01:22:49;;;;;;;9.75;4.15;;;16.60;79.00;;;;;;5001131;28;20049;-73
2022/06/30 01:25:15;;;;;;;9.70;3.60;;;16.60;79.00;;;;;;4999068;28;20040;-73
2022/06/30 01:27:40;;;;;;;9.68;3.67;;;16.60;79.00;;;;;;5000430;28;20049;-73
2022/06/30 01:30:07;;;;;;;9.68;3.53;;;16.70;78.80;;;;;;4999322;28;20158;-73
2022/06/30 01:32:32;;;;;;;9.75;4.28;;;16.70;79.00;;;;;;4999610;28;20038;-73
2022/06/30 01:34:58;;;;;;;10.50;4.13;;;16.70;78.90;;;;;;4999791;28;20037;-73
2022/06/30 01:37:26;;;;;;;9.05;3.45;;;16.70;78.80;;;;;;5004269;28;20499;-73
2022/06/30 01:39:52;;;;;;;11.00;3.67;;;16.70;79.00;;;;;;5001562;28;20501;-73
2022/06/30 01:42:18;;;;;;;9.75;3.53;;;16.70;79.10;;;;;;5008873;28;20037;-73
2022/06/30 01:44:44;;;;;;;8.10;3.65;;;16.70;79.10;;;;;;4995656;28;20459;-73
2022/06/30 01:47:10;;;;;;;9.95;4.35;;;16.60;79.40;;;;;;4995795;28;20567;-74
2022/06/30 01:49:36;;;;;;;11.10;4.30;;;16.60;79.60;;;;;;4996399;28;20442;-74
2022/06/30 01:52:03;;;;;;;8.73;4.00;;;16.60;79.70;;;;;;4993188;28;20133;-74
2022/06/30 01:54:28;;;;;;;10.82;4.13;;;16.60;79.80;;;;;;4993615;28;20040;-73
2022/06/30 01:56:54;;;;;;;10.10;3.72;;;16.60;79.80;;;;;;4994970;28;20050;-74
2022/06/30 01:59:19;;;;;;;10.48;3.97;;;16.60;79.80;;;;;;4998833;28;20539;-73
2022/06/30 02:01:45;;;;;;;9.77;4.35;;;16.60;79.70;;;;;;4996750;28;20543;-74
2022/06/30 02:06:55;;;;;;;10.07;4.22;;;16.60;79.90;;;;;;4999274;28;20055;-74
2022/06/30 02:09:21;;;;;;;9.60;3.70;;;16.60;79.80;;;;;;4994492;28;20049;-73
2022/06/30 02:11:47;;;;;;;9.05;4.07;;;16.60;79.60;;;;;;4995079;28;20375;-73
2022/06/30 02:14:13;;;;;;;9.57;4.28;;;16.60;79.70;;;;;;4992831;28;20040;-74
2022/06/30 02:16:39;;;;;;;9.63;4.05;;;16.60;79.70;;;;;;4999284;28;20033;-74
2022/06/30 02:19:05;;;;;;;11.02;4.10;;;16.60;79.60;;;;;;4992345;28;20476;-73
2022/06/30 02:21:30;;;;;;;10.27;4.18;;;16.60;79.30;;;;;;4995812;28;20042;-73
2022/06/30 02:23:56;;;;;;;9.93;3.65;;;16.60;79.50;;;;;;4995314;28;20034;-74
2022/06/30 02:26:21;;;;;;;10.32;3.97;;;16.60;79.30;;;;;;4993926;28;20048;-73
2022/06/30 02:28:47;;;;;;;10.52;4.40;;;16.60;79.40;;;;;;4997746;28;20034;-73
2022/06/30 02:31:13;;;;;;;9.38;4.10;;;16.50;79.30;;;;;;4995825;28;20454;-73
2022/06/30 02:33:39;;;;;;;13.45;4.35;;;16.50;79.50;;;;;;4997470;28;20041;-73
2022/06/30 02:36:06;;;;;;;9.63;4.13;;;16.50;79.60;;;;;;4997126;28;20126;-73
2022/06/30 02:38:32;;;;;;;10.30;4.13;;;16.40;79.50;;;;;;4997460;28;20131;-73
2022/06/30 02:40:58;;;;;;;9.35;4.13;;;16.40;79.70;;;;;;4995915;28;20484;-73
2022/06/30 02:43:24;;;;;;;8.73;3.92;;;16.30;79.80;;;;;;4998115;28;20045;-72
2022/06/30 02:45:49;;;;;;;10.38;4.18;;;16.40;79.90;;;;;;5006959;28;20133;-72
2022/06/30 02:48:16;;;;;;;11.35;4.22;;;16.30;79.90;;;;;;4996015;28;20037;-72
2022/06/30 02:50:44;;;;;;;11.65;4.45;;;16.30;79.90;;;;;;4997416;28;20073;-72
2022/06/30 02:53:13;;;;;;;9.20;3.85;;;16.30;79.90;;;;;;4985368;28;20577;-72
2022/06/30 02:55:39;;;;;;;9.23;3.90;;;16.30;80.00;;;;;;4996188;28;20480;-73
2022/06/30 02:58:04;;;;;;;10.93;3.97;;;16.40;79.80;;;;;;4997974;28;20137;-73
2022/06/30 03:00:30;;;;;;;8.70;4.13;;;16.30;79.70;;;;;;4996216;28;20038;-74
2022/06/30 03:02:58;;;;;;;11.85;4.47;;;16.20;79.90;;;;;;4999012;28;20544;-72
2022/06/30 03:05:24;;;;;;;10.98;4.57;;;16.20;80.00;;;;;;4994509;28;20042;-73
2022/06/30 03:07:50;;;;;;;9.75;4.22;;;16.20;80.10;;;;;;4999752;28;20049;-74
2022/06/30 03:10:16;;;;;;;9.40;5.00;;;16.20;80.10;;;;;;4995766;28;20554;-73
2022/06/30 03:12:41;;;;;;;11.32;5.30;;;16.20;80.10;;;;;;4997768;28;20723;-74
2022/06/30 03:15:07;;;;;;;13.52;5.07;;;16.20;80.00;;;;;;4992646;28;20120;-74
2022/06/30 03:17:33;;;;;;;14.70;5.03;;;16.10;80.00;;;;;;4997085;28;20372;-74
2022/06/30 03:19:59;;;;;;;13.05;5.80;;;16.20;80.10;;;;;;4997975;28;20125;-73
2022/06/30 03:22:25;;;;;;;11.85;5.07;;;16.20;80.20;;;;;;5002559;28;20053;-74
2022/06/30 03:24:50;;;;;;;9.43;4.95;;;16.10;80.00;;;;;;4996982;28;20474;-74
2022/06/30 03:27:16;;;;;;;11.18;4.88;;;16.10;80.10;;;;;;4996800;28;20038;-74
2022/06/30 03:29:42;;;;;;;11.95;5.38;;;16.10;80.20;;;;;;5000153;28;20042;-73
2022/06/30 03:32:08;;;;;;;10.43;5.13;;;16.10;80.30;;;;;;4995581;28;20041;-73
2022/06/30 03:34:34;;;;;;;9.48;4.88;;;16.10;80.30;;;;;;5000346;28;20162;-73
2022/06/30 03:36:59;;;;;;;11.35;4.72;;;16.10;80.30;;;;;;4998322;28;20034;-73
2022/06/30 03:39:25;;;;;;;8.75;4.38;;;16.10;80.30;;;;;;4996560;28;20033;-73
2022/06/30 03:41:50;;;;;;;9.93;4.65;;;16.10;80.40;;;;;;4987540;28;20436;-73
2022/06/30 03:44:16;;;;;;;11.75;3.88;;;16.10;80.40;;;;;;4993504;28;20618;-73
2022/06/30 03:46:42;;;;;;;10.68;4.45;;;16.10;80.40;;;;;;4996786;28;20259;-73
2022/06/30 03:49:08;;;;;;;8.60;3.50;;;16.10;80.30;;;;;;4992379;28;20546;-73
2022/06/30 03:51:34;;;;;;;9.60;4.40;;;16.10;80.10;;;;;;4995110;28;20025;-73
2022/06/30 03:53:59;;;;;;;9.30;3.80;;;16.10;80.40;;;;;;4996360;28;20305;-73
2022/06/30 03:56:25;;;;;;;10.60;4.47;;;16.10;80.30;;;;;;4996787;28;20043;-72
2022/06/30 03:58:51;;;;;;;11.68;4.30;;;16.10;80.30;;;;;;5000800;28;20445;-74
2022/06/30 04:01:17;;;;;;;11.77;4.53;;;16.10;80.30;;;;;;5000844;28;22008;-74
2022/06/30 04:03:43;;;;;;;9.38;4.40;;;16.10;80.30;;;;;;5000605;28;20049;-74
2022/06/30 04:06:08;;;;;;;11.15;4.50;;;16.20;80.10;;;;;;4995618;28;20197;-74
2022/06/30 04:08:34;;;;;;;11.75;4.90;;;16.10;80.20;;;;;;4998637;28;20033;-74
2022/06/30 04:10:59;;;;;;;11.25;4.40;;;16.30;80.10;;;;;;4998233;28;20045;-74
2022/06/30 04:13:25;;;;;;;9.15;4.40;;;16.30;79.70;;;;;;4995514;28;20033;-74
2022/06/30 04:15:51;;;;;;;9.70;4.22;;;16.30;79.70;;;;;;4996631;28;20128;-73
2022/06/30 04:18:16;;;;;;;12.77;4.75;;;16.20;79.80;;;;;;4994568;28;20062;-74
2022/06/30 04:20:42;;;;;;;8.27;4.22;;;16.20;79.90;;;;;;4995071;28;20038;-74
2022/06/30 04:23:07;;;;;;;9.82;4.10;;;16.20;80.00;;;;;;4995276;28;20049;-73
2022/06/30 04:25:33;;;;;;;13.43;5.07;;;16.30;79.70;;;;;;4997846;28;20528;-74
2022/06/30 04:28:00;;;;;;;10.98;4.22;;;16.20;79.90;;;;;;4997829;28;20038;-74
2022/06/30 04:33:10;;;;;;;;;;;16.20;79.70;;;;;;4994824;28;20050;-74
2022/06/30 04:35:36;;;;;;;10.02;4.82;;;16.20;80.10;;;;;;5004525;28;19921;-74
2022/06/30 04:38:03;;;;;;;16.02;5.35;;;16.30;80.10;;;;;;4990120;28;20741;-74
2022/06/30 04:43:13;;;;;;;10.63;3.97;;;16.50;79.40;;;;;;4997103;28;20106;-74
2022/06/30 04:45:39;;;;;;;11.90;4.60;;;16.60;79.20;;;;;;4999375;28;20042;-74
2022/06/30 04:48:05;;;;;;;12.25;5.13;;;16.60;78.90;;;;;;4995506;28;20042;-74
2022/06/30 04:50:31;;;;;;;11.75;4.65;;;16.70;78.60;;;;;;5003005;28;20033;-74
2022/06/30 04:52:56;;;;;;;12.82;4.40;;;16.80;78.40;;;;;;4995324;28;20452;-73
2022/06/30 04:55:22;;;;;;;9.60;4.38;;;16.80;77.70;;;;;;4995875;28;20048;-73
2022/06/30 04:57:47;;;;;;;10.88;4.78;;;16.90;77.90;;;;;;4997110;28;20439;-73
2022/06/30 05:00:13;;;;;;;12.20;4.32;;;16.90;78.30;;;;;;4996315;28;20038;-75
2022/06/30 05:02:39;;;;;;;9.15;4.53;;;17.10;77.80;;;;;;4997080;28;20046;-73
2022/06/30 05:05:05;;;;;;;10.15;4.43;;;17.10;77.60;;;;;;5001483;28;20025;-74
2022/06/30 05:07:31;;;;;;;12.85;5.00;;;17.20;77.50;;;;;;5003625;28;20053;-74
2022/06/30 05:09:56;;;;;;;9.85;4.78;;;17.40;76.60;;;;;;4998812;28;20401;-73
2022/06/30 05:12:22;;;;;;;11.65;4.75;;;17.90;75.40;;;;;;5000923;28;20042;-72
2022/06/30 05:14:48;;;;;;;12.10;4.25;;;19.10;71.90;;;;;;5002922;28;20141;-73
2022/06/30 05:17:13;;;;;;;8.35;3.80;;;20.70;67.60;;;;;;5002848;28;20474;-73
2022/06/30 05:19:39;;;;;;;10.27;4.22;;;21.90;63.50;;;;;;4995340;28;20401;-73
2022/06/30 05:22:05;;;;;;;8.85;3.60;;;22.30;60.30;;;;;;4993924;28;20446;-74
2022/06/30 05:27:15;;;;;;;10.93;3.75;;;23.50;56.40;;;;;;4992885;28;20133;-73
2022/06/30 05:29:41;;;;;;;10.00;3.80;;;24.40;52.80;;;;;;4991914;28;20038;-73
2022/06/30 05:32:07;;;;;;;10.68;4.43;;;25.10;51.30;;;;;;4987699;28;20030;-74
2022/06/30 05:34:34;;;;;;;10.00;4.32;;;25.90;49.30;;;;;;4992992;28;20058;-74
2022/06/30 05:36:59;;;;;;;7.80;3.90;;;26.20;47.20;;;;;;4988981;28;20042;-74
2022/06/30 05:39:25;;;;;;;9.57;4.28;;;25.70;48.00;;;;;;4992741;28;20497;-74
2022/06/30 05:41:51;;;;;;;12.65;4.35;;;25.10;50.00;;;;;;4993279;28;20119;-74
2022/06/30 05:44:16;;;;;;;7.95;3.97;;;24.10;52.10;;;;;;4989460;28;20141;-74
2022/06/30 05:46:43;;;;;;;10.25;4.10;;;24.20;52.60;;;;;;4992451;28;20121;-74
2022/06/30 05:49:09;;;;;;;11.70;4.18;;;24.90;51.40;;;;;;4993493;28;20045;-74
2022/06/30 05:51:35;;;;;;;8.60;3.40;;;25.40;49.90;;;;;;4994268;28;20042;-74
2022/06/30 05:54:01;;;;;;;10.27;3.70;;;25.50;49.60;;;;;;4990152;28;20038;-74
2022/06/30 05:56:27;;;;;;;8.30;3.17;;;25.90;47.70;;;;;;4990098;28;20029;-74
2022/06/30 05:58:53;;;;;;;9.38;4.07;;;25.70;48.00;;;;;;4993457;28;20838;-74
2022/06/30 06:01:18;;;;;;;6.65;3.03;;;25.00;48.80;;;;;;5006616;28;20060;-74
2022/06/30 06:03:44;;;;;;;6.82;2.75;;;23.90;51.70;;;;;;4992132;28;20062;-74
2022/06/30 06:06:10;;;;;;;9.23;3.35;;;22.90;55.10;;;;;;4990797;28;20030;-74
2022/06/30 06:08:36;;;;;;;8.13;3.00;;;22.40;56.30;;;;;;4999297;28;20048;-73
2022/06/30 06:11:02;;;;;;;10.38;3.78;;;22.10;57.20;;;;;;4990221;28;20030;-73
2022/06/30 06:13:28;;;;;;;9.98;4.07;;;21.70;59.20;;;;;;4991417;28;20034;-73
2022/06/30 06:15:53;;;;;;;10.10;4.13;;;20.70;61.00;;;;;;4992509;28;20042;-75
2022/06/30 06:18:19;;;;;;;14.82;4.85;;;20.30;63.20;;;;;;4992558;28;20073;-77
2022/06/30 06:20:45;;;;;;;9.60;3.78;;;20.10;63.80;;;;;;4994282;28;20041;-77
2022/06/30 06:23:10;;;;;;;9.95;4.22;;;20.10;64.50;;;;;;4991200;28;20046;-77
2022/06/30 06:25:36;;;;;;;9.93;4.07;;;19.90;65.40;;;;;;4992155;28;20034;-77
2022/06/30 06:30:46;;;;;;;9.10;3.92;;;19.90;66.30;;;;;;4999159;28;20041;-76
2022/06/30 06:33:11;;;;;;;9.27;4.18;;;19.90;66.30;;;;;;4992214;28;20038;-77
2022/06/30 06:35:37;;;;;;;11.52;3.67;;;19.90;66.40;;;;;;4997464;28;20031;-77
2022/06/30 06:38:02;;;;;;;9.52;3.95;;;19.90;66.60;;;;;;4996257;28;20461;-77
2022/06/30 06:40:29;;;;;;;10.02;3.95;;;20.00;66.10;;;;;;4989023;28;20026;-77
2022/06/30 06:42:55;;;;;;;15.30;3.88;;;19.90;65.80;;;;;;4994976;28;20126;-77
2022/06/30 06:45:20;;;;;;;7.72;3.70;;;20.00;66.30;;;;;;4996882;28;20037;-76
2022/06/30 06:47:47;;;;;;;7.85;4.07;;;20.20;65.60;;;;;;4997769;28;20041;-73
2022/06/30 06:50:12;;;;;;;8.80;3.78;;;20.20;64.90;;;;;;4998236;28;20505;-73
2022/06/30 06:52:38;;;;;;;9.73;3.67;;;20.30;65.10;;;;;;4989232;28;20516;-74
2022/06/30 06:55:04;;;;;;;8.85;3.88;;;20.20;65.10;;;;;;4992796;28;20504;-75
2022/06/30 06:57:35;;;;;;;7.30;3.45;;;20.30;65.10;;;;;;4998190;28;20614;-75
2022/06/30 07:00:03;;;;;;;8.32;3.40;;;20.30;64.80;;;;;;4991145;28;20050;-77
2022/06/30 07:02:28;;;;;;;9.70;3.80;;;20.20;64.90;;;;;;4988129;28;20445;-77
2022/06/30 07:04:54;;;;;;;8.85;3.45;;;20.10;65.80;;;;;;4989578;28;20044;-76
2022/06/30 07:07:20;;;;;;;9.60;3.60;;;20.10;65.30;;;;;;4993530;28;20114;-77
2022/06/30 07:09:45;;;;;;;13.10;3.63;;;19.80;66.70;;;;;;4993051;28;20109;-77
2022/06/30 07:12:11;;;;;;;8.70;3.50;;;19.80;67.10;;;;;;4988047;28;20437;-77
2022/06/30 07:14:37;;;;;;;8.77;3.35;;;19.80;67.20;;;;;;4994658;28;20068;-76
2022/06/30 07:17:02;;;;;;;9.15;3.70;;;19.70;67.40;;;;;;4990041;28;20042;-76
2022/06/30 07:19:28;;;;;;;8.77;3.38;;;19.80;67.50;;;;;;4988015;28;20109;-77
2022/06/30 07:21:54;;;;;;;9.73;3.58;;;19.80;67.50;;;;;;4994931;28;20065;-78
2022/06/30 07:24:19;;;;;;;9.85;3.75;;;19.90;67.80;;;;;;4991515;28;20087;-78
2022/06/30 07:26:45;;;;;;;9.32;4.22;;;19.80;67.70;;;;;;4996047;28;20375;-77
2022/06/30 07:29:11;;;;;;;10.27;4.38;;;19.70;68.30;;;;;;4992905;28;20444;-77
2022/06/30 07:31:36;;;;;;;8.63;3.65;;;19.50;68.50;;;;;;4998233;28;20071;-77
2022/06/30 07:34:02;;;;;;;9.60;3.88;;;19.50;69.20;;;;;;4990860;28;20042;-77
2022/06/30 07:36:28;;;;;;;8.70;4.43;;;19.50;69.60;;;;;;4997675;28;20141;-78
2022/06/30 07:38:53;;;;;;;10.50;3.35;;;19.50;70.70;;;;;;4995192;28;20454;-76
2022/06/30 07:41:19;;;;;;;10.63;4.25;;;19.40;70.90;;;;;;4995119;28;20038;-78
2022/06/30 07:43:45;;;;;;;11.65;4.10;;;19.40;70.80;;;;;;4996152;28;20315;-77
2022/06/30 07:46:12;;;;;;;9.85;3.65;;;19.30;70.70;;;;;;4997488;28;20058;-77
2022/06/30 07:48:37;;;;;;;9.05;3.83;;;19.30;70.70;;;;;;4997628;28;20064;-78
2022/06/30 07:51:04;;;;;;;9.32;3.55;;;19.30;71.60;;;;;;4995017;28;20034;-77
2022/06/30 07:53:30;;;;;;;12.25;4.38;;;19.30;72.70;;;;;;4996369;28;20035;-77
2022/06/30 07:55:55;;;;;;;8.52;3.90;;;19.40;72.20;;;;;;4993186;28;20112;-78
2022/06/30 07:58:21;;;;;;;8.73;3.70;;;19.50;72.40;;;;;;4997085;28;20569;-78
2022/06/30 08:00:47;;;;;;;8.52;3.70;;;19.50;72.80;;;;;;4992458;28;21300;-77
2022/06/30 08:03:12;;;;;;;7.65;3.42;;;19.50;72.70;;;;;;4993613;28;20050;-78
2022/06/30 08:05:38;;;;;;;8.00;3.92;;;19.40;73.70;;;;;;5000120;28;20034;-77
2022/06/30 08:08:04;;;;;;;8.23;3.58;;;19.40;73.90;;;;;;5000365;28;20030;-77
2022/06/30 08:10:29;;;;;;;10.88;3.85;;;19.40;74.60;;;;;;5002481;28;20053;-79
2022/06/30 08:12:55;;;;;;;10.18;3.97;;;19.30;75.00;;;;;;5005611;28;20088;-77
2022/06/30 08:15:21;;;;;;;10.90;4.22;;;19.30;75.90;;;;;;4998931;28;20417;-77
2022/06/30 08:17:46;;;;;;;8.85;4.10;;;19.20;76.90;;;;;;5000266;28;20037;-76
2022/06/30 08:20:12;;;;;;;9.20;4.13;;;19.20;76.20;;;;;;4996031;28;20156;-75
2022/06/30 08:22:38;;;;;;;10.23;4.00;;;19.10;76.80;;;;;;4993442;28;20057;-76
2022/06/30 08:25:04;;;;;;;9.73;3.80;;;19.10;76.30;;;;;;4997345;28;20078;-74
2022/06/30 08:27:30;;;;;;;10.10;3.80;;;19.00;76.80;;;;;;4992918;28;20042;-76
2022/06/30 08:29:55;;;;;;;11.50;4.20;;;19.00;77.20;;;;;;4997781;28;20040;-77
2022/06/30 08:32:22;;;;;;;12.93;4.15;;;19.00;76.20;;;;;;4998826;28;20038;-76
2022/06/30 08:34:48;;;;;;;9.65;4.18;;;18.90;76.90;;;;;;5000154;28;20563;-77
2022/06/30 08:37:14;;;;;;;8.70;4.20;;;18.90;77.70;;;;;;4997186;28;20121;-77
2022/06/30 08:42:25;;;;;;;12.82;4.80;;;19.00;77.90;;;;;;5008473;28;20056;-77
2022/06/30 08:47:37;;;;;;;10.43;4.38;;;18.80;78.70;;;;;;4993401;28;20267;-78
2022/06/30 08:50:05;;;;;;;11.02;4.63;;;18.90;78.60;;;;;;5001944;28;20088;-77
2022/06/30 08:52:32;;;;;;;8.57;4.20;;;18.80;78.90;;;;;;4998774;28;20133;-77
2022/06/30 08:54:59;;;;;;;17.50;4.10;;;18.90;79.40;;;;;;4994793;28;20121;-77
2022/06/30 08:57:26;;;;;;;11.60;4.63;;;18.90;78.90;;;;;;4999944;28;20045;-77
2022/06/30 08:59:52;;;;;;;11.00;4.28;;;19.00;79.60;;;;;;4992887;28;20104;-78
2022/06/30 09:02:19;;;;;;;9.93;3.85;;;19.00;79.60;;;;;;4993072;28;20046;-79
2022/06/30 09:04:44;;;;;;;11.02;4.30;;;19.10;79.20;;;;;;4996368;28;20042;-77
2022/06/30 09:07:11;;;;;;;9.90;4.30;;;19.00;78.00;;;;;;5009915;28;20040;-77
2022/06/30 09:09:38;;;;;;;11.73;5.00;;;19.00;78.60;;;;;;5002418;28;20315;-77
2022/06/30 09:12:14;;;;;;;8.20;3.75;;;19.00;79.10;;;;;;5005644;28;20374;-77
2022/06/30 09:14:47;;;;;;;11.50;3.92;;;19.10;79.20;;;;;;4992972;28;20085;-77
2022/06/30 09:17:16;;;;;;;9.80;3.97;;;19.20;79.70;;;;;;4996692;28;20122;-78
2022/06/30 09:20:05;;;;;;;10.85;4.50;;;19.30;79.60;;;;;;4993171;28;20042;-75
2022/06/30 09:22:35;;;;;;;11.38;4.70;;;19.40;79.20;;;;;;4993447;28;20081;-76
2022/06/30 09:25:09;;;;;;;11.07;4.55;;;19.30;78.20;;;;;;4995071;28;20049;-75
2022/06/30 09:27:36;;;;;;;;;;;19.20;78.30;;;;;;4993856;28;20078;-76
2022/06/30 09:30:07;;;;;;;12.23;5.15;;;19.30;79.10;;;;;;4992954;28;19921;-75
2022/06/30 09:32:53;;;;;;;9.75;4.65;;;19.30;78.90;;;;;;4991843;28;20108;-77
2022/06/30 09:35:21;;;;;;;9.50;5.13;;;19.30;78.30;;;;;;4993923;28;20030;-77
2022/06/30 09:38:04;;;;;;;12.07;5.88;;;19.30;78.60;;;;;;4994851;28;20398;-77
2022/06/30 09:40:33;;;;;;;8.77;4.43;;;19.20;78.40;;;;;;4992709;28;20575;-76
2022/06/30 09:42:59;;;;;;;14.05;5.90;;;19.20;78.60;;;;;;4997612;28;20559;-76
2022/06/30 09:45:36;;;;;;;8.55;5.20;;;19.20;80.40;;;;;;4997655;28;20153;-76
2022/06/30 09:48:02;;;;;;;11.18;5.60;;;19.30;78.40;;;;;;4990140;28;20042;-76
2022/06/30 09:50:28;;;;;;;13.48;5.80;;;19.30;78.70;;;;;;4991332;28;20039;-75
2022/06/30 09:53:09;;;;;;;10.85;5.30;;;19.20;79.00;;;;;;4994691;28;20069;-75
2022/06/30 09:55:47;;;;;;;12.55;5.97;;;19.30;78.30;;;;;;5013112;28;20053;-75
2022/06/30 09:58:34;;;;;;;9.85;5.80;;;19.20;77.60;;;;;;4990988;28;20104;-76
2022/06/30 10:01:00;;;;;;;15.00;6.78;;;19.00;78.50;;;;;;4988237;28;20069;-76
2022/06/30 10:03:26;;;;;;;11.32;7.28;;;18.90;78.70;;;;;;4991624;28;20052;-75
2022/06/30 10:06:16;;;;;;;12.80;7.90;;;18.90;79.80;;;;;;4992010;28;20482;-76
2022/06/30 10:08:42;;;;;;;10.55;6.95;;;18.90;80.30;;;;;;4998297;28;20112;-77
2022/06/30 10:11:09;;;;;;;12.73;6.70;;;18.90;80.20;;;;;;4998491;28;20045;-75
2022/06/30 10:13:37;;;;;;;13.52;7.82;;;18.90;79.50;;;;;;4995668;28;20778;-76
2022/06/30 10:16:05;;;;;;;13.82;6.82;;;18.80;79.40;;;;;;4997940;28;20057;-76
2022/06/30 10:18:36;;;;;;;11.25;6.72;;;18.80;79.50;;;;;;4994318;28;20573;-77
2022/06/30 10:21:04;;;;;;;11.13;5.82;;;18.80;78.70;;;;;;4991854;28;20057;-76
2022/06/30 10:23:32;;;;;;;11.98;5.97;;;18.70;77.90;;;;;;5008979;28;20405;-76
2022/06/30 10:25:58;;;;;;;12.65;6.95;;;18.60;78.30;;;;;;4996552;28;20037;-76
2022/06/30 10:28:26;;;;;;;9.70;6.00;;;18.40;78.60;;;;;;4998243;28;20033;-76
2022/06/30 10:31:01;;;;;;;10.80;6.10;;;18.30;79.00;;;;;;4992529;28;20042;-76
2022/06/30 10:33:33;;;;;;;9.48;6.07;;;18.40;79.40;;;;;;4991591;28;20130;-75
2022/06/30 10:36:13;;;;;;;11.20;6.00;;;18.50;79.80;;;;;;4990175;28;20076;-75
2022/06/30 10:38:53;;;;;;;9.98;5.22;;;18.50;79.60;;;;;;4998316;28;20128;-75
2022/06/30 10:41:23;;;;;;;9.75;4.93;;;18.50;79.90;;;;;;4999518;28;20869;-76
2022/06/30 10:44:04;;;;;;;10.98;4.63;;;18.30;79.10;;;;;;5013265;28;20054;-77
2022/06/30 10:46:56;;;;;;;9.80;5.07;;;18.50;78.90;;;;;;4997335;28;20041;-77
2022/06/30 10:49:27;;;;;;;9.32;4.97;;;18.50;79.30;;;;;;5009970;28;20136;-75
2022/06/30 10:52:18;;;;;;;12.32;6.38;;;18.50;79.10;;;;;;4996796;28;20042;-73
2022/06/30 10:54:45;;;;;;;9.55;5.63;;;18.50;80.00;;;;;;4998269;28;20038;-75
2022/06/30 10:57:12;;;;;;;12.13;6.97;;;18.50;79.80;;;;;;4988431;28;20050;-75
2022/06/30 10:59:43;;;;;;;10.52;6.80;;;18.50;79.30;;;;;;5000724;28;20064;-75
2022/06/30 11:02:12;;;;;;;9.65;6.28;;;18.20;78.50;;;;;;5001023;28;20089;-77
2022/06/30 11:04:41;;;;;;;13.50;6.90;;;18.10;79.20;;;;;;5003178;28;20073;-74
2022/06/30 11:07:08;;;;;;;11.52;7.45;;;18.20;80.40;;;;;;5000981;28;20065;-76
2022/06/30 11:09:57;;;;;;;12.38;7.50;;;18.10;80.20;;;;;;5001215;28;20045;-75
2022/06/30 11:12:29;;;;;;;11.55;6.78;;;18.00;79.80;;;;;;4991044;28;20050;-76
2022/06/30 11:14:56;;;;;;;11.82;5.68;;;17.80;80.70;;;;;;5000454;28;20061;-75
2022/06/30 11:17:24;;;;;;;10.25;6.47;;;17.60;80.50;;;;;;5000313;28;20449;-75
2022/06/30 11:20:20;;;;;;;13.02;7.18;;;17.60;80.80;;;;;;4997116;28;20062;-76
2022/06/30 11:22:46;;;;;;;13.20;7.45;;;17.60;81.20;;;;;;4980878;28;20701;-76
2022/06/30 11:27:17;;;;;;;12.93;7.00;;;17.50;82.00;;;;;;4997407;28;20116;-76
2022/06/30 11:28:05;;;;;;;11.77;7.50;;;17.60;81.20;;;;;;4998065;28;20439;-77
2022/06/30 11:30:33;;;;;;;11.73;6.93;;;17.60;81.90;;;;;;4994695;28;20030;-77
2022/06/30 11:32:59;;;;;;;11.65;7.55;;;17.70;81.40;;;;;;4999455;28;20089;-77
2022/06/30 11:35:29;;;;;;;15.02;8.65;;;17.70;81.40;;;;;;4996312;28;20061;-77
2022/06/30 11:37:55;;;;;;;17.48;11.50;;;17.60;80.60;;;;;;4996152;28;20041;-76
2022/06/30 11:40:21;;;;;;;15.73;11.75;;;17.60;80.40;;;;;;5002264;28;20034;-77
2022/06/30 11:42:49;;;;;;;13.88;11.88;;;17.60;80.30;;;;;;4996298;28;20037;-77
2022/06/30 11:45:18;;;;;;;15.77;13.98;;;17.50;80.60;;;;;;4997795;28;20449;-77
2022/06/30 11:47:54;;;;;;;16.30;14.75;;;17.60;80.80;;;;;;5003696;28;20034;-78
2022/06/30 11:50:26;;;;;;;19.60;17.55;;;17.60;80.80;;;;;;4996635;28;20034;-77
2022/06/30 11:52:54;;;;;;;18.50;16.63;;;17.60;80.90;;;;;;4982526;28;20494;-76
2022/06/30 11:55:25;;;;;;;19.75;17.75;;;17.60;81.20;;;;;;4992031;28;20222;-78
2022/06/30 11:57:50;;;;;;;19.95;17.98;;;17.60;81.30;;;;;;4995441;28;20048;-77
2022/06/30 12:00:22;;;;;;;20.02;18.13;;;17.60;81.70;;;;;;4993637;28;20034;-78
2022/06/30 12:02:49;;;;;;;17.80;14.63;;;17.50;82.00;;;;;;5000584;28;20042;-77
2022/06/30 12:05:22;;;;;;;17.95;14.05;;;17.60;82.50;;;;;;4996093;28;20062;-77
2022/06/30 12:07:49;;;;;;;17.93;14.57;;;17.40;82.30;;;;;;5008757;28;20063;-77
2022/06/30 12:10:18;;;;;;;16.83;15.02;;;17.30;82.80;;;;;;5021797;28;20046;-76
2022/06/30 12:12:44;;;;;;;19.85;16.65;;;17.40;83.30;;;;;;5008222;28;20046;-78
2022/06/30 12:15:14;;;;;;;18.73;16.35;;;17.30;83.10;;;;;;4998909;28;20054;-77
2022/06/30 12:17:41;;;;;;;20.95;16.10;;;17.20;83.60;;;;;;4988895;28;21286;-77
2022/06/30 12:20:09;;;;;;;18.02;16.15;;;17.10;83.70;;;;;;4994631;28;20073;-77
2022/06/30 12:22:40;;;;;;;20.77;17.05;;;17.20;83.80;;;;;;4986682;28;20053;-78
2022/06/30 12:25:06;;;;;;;18.65;16.00;;;17.30;84.40;;;;;;4992193;28;20038;-77
2022/06/30 12:27:43;;;;;;;17.88;14.93;;;17.30;84.50;;;;;;4987631;28;20030;-77
2022/06/30 12:30:12;;;;;;;14.48;10.98;;;17.50;84.50;;;;;;4990913;28;20053;-77
2022/06/30 12:32:38;;;;;;;11.20;9.77;;;17.50;84.70;;;;;;4987784;28;20414;-77
2022/06/30 12:35:10;;;;;;;12.95;9.73;;;17.60;84.80;;;;;;4994566;28;20041;-77
2022/06/30 12:37:38;;;;;;;12.95;8.35;;;17.60;85.00;;;;;;4996101;28;20034;-76
2022/06/30 12:40:05;;;;;;;11.45;7.68;;;17.60;84.50;;;;;;4990293;28;20513;-78
2022/06/30 12:43:00;;;;;;;11.48;7.88;;;17.60;84.60;;;;;;4990386;28;20053;-77
2022/06/30 12:45:49;;;;;;;12.25;7.53;;;17.60;84.40;;;;;;4992408;28;20547;-77
2022/06/30 12:48:38;;;;;;;11.27;6.88;;;17.50;84.60;;;;;;4989356;28;20037;-79
2022/06/30 12:51:04;;;;;;;12.40;7.68;;;17.50;84.60;;;;;;4986689;28;20053;-78
2022/06/30 12:53:30;;;;;;;11.60;6.03;;;17.60;84.80;;;;;;4996050;28;20042;-78
2022/06/30 12:56:18;;;;;;;9.80;6.07;;;17.40;84.10;;;;;;4995367;28;20045;-78
2022/06/30 12:58:52;;;;;;;10.63;5.60;;;17.40;84.50;;;;;;5001341;28;20077;-78
2022/06/30 13:01:24;;;;;;;9.80;5.60;;;17.40;84.60;;;;;;5012951;28;20060;-76
2022/06/30 13:03:56;;;;;;;8.30;5.20;;;17.40;84.90;;;;;;4995986;28;20584;-78
2022/06/30 13:06:22;;;;;;;9.40;5.85;;;17.50;84.40;;;;;;4992443;28;20128;-79